Time;durP1;ratioP1;P1;durP2;ratioP2;P2;SDS_P1;SDS_P2;PMS_P1;PMS_P2;Temp;Humidity;BMP_temperature;BMP_pressure;BME280_temperature;BME280_humidity;BME280_pressure;Samples;Min_cycle;Max_cycle;Signal;HPM_P1;HPM_P2
2022/11/07 00:02:12;;;;;;;;;;;10.20;99.90;;;;;;5048319;28;19927;-67
2022/11/07 00:04:38;;;;;;;;;;;10.30;99.90;;;;;;5050343;28;19921;-67
2022/11/07 00:07:04;;;;;;;;;;;10.30;99.90;;;;;;5001340;28;19925;-68
2022/11/07 00:09:30;;;;;;;;;;;10.30;99.90;;;;;;5026743;28;19948;-67
2022/11/07 00:11:55;;;;;;;;;;;10.40;99.90;;;;;;5013921;28;20550;-67
2022/11/07 00:14:21;;;;;;;;;;;10.40;99.90;;;;;;5024274;28;20007;-68
2022/11/07 00:16:47;;;;;;;;;;;10.30;99.90;;;;;;4999904;28;19920;-67
2022/11/07 00:19:13;;;;;;;;;;;10.40;99.90;;;;;;5046619;28;20636;-68
2022/11/07 00:21:39;;;;;;;;;;;10.40;99.90;;;;;;5023392;28;19921;-68
2022/11/07 00:24:05;;;;;;;;;;;10.40;99.90;;;;;;5011599;28;19920;-67
2022/11/07 00:26:31;;;;;;;;;;;10.50;99.90;;;;;;5025692;28;19933;-68
2022/11/07 00:28:56;;;;;;;;;;;10.50;99.90;;;;;;5039180;28;20370;-69
2022/11/07 00:31:22;;;;;;;;;;;10.50;99.90;;;;;;5032463;28;19936;-69
2022/11/07 00:33:47;;;;;;;;;;;10.50;99.90;;;;;;5015058;28;19925;-69
2022/11/07 00:36:20;;;;;;;;;;;10.50;99.90;;;;;;5029821;28;20027;-70
2022/11/07 00:38:46;;;;;;;;;;;10.50;99.90;;;;;;5030838;28;20671;-70
2022/11/07 00:41:11;;;;;;;;;;;10.50;99.90;;;;;;5021129;28;19931;-69
2022/11/07 00:43:37;;;;;;;;;;;10.50;99.90;;;;;;5014013;28;19921;-69
2022/11/07 00:46:03;;;;;;;;;;;10.50;99.90;;;;;;5026157;28;20016;-70
2022/11/07 00:48:29;;;;;;;;;;;10.50;99.90;;;;;;5020703;28;20038;-69
2022/11/07 00:50:55;;;;;;;;;;;10.50;99.90;;;;;;5033053;28;19946;-69
2022/11/07 00:53:21;;;;;;;;;;;10.40;99.90;;;;;;5022918;28;20354;-69
2022/11/07 00:55:46;;;;;;;;;;;10.50;99.90;;;;;;5014725;28;19928;-69
2022/11/07 00:58:12;;;;;;;;;;;10.50;99.90;;;;;;5019605;28;19943;-69
2022/11/07 01:00:37;;;;;;;;;;;10.60;99.90;;;;;;5024713;28;19920;-68
2022/11/07 01:05:54;;;;;;;;;;;10.60;99.90;;;;;;5028354;28;19929;-69
2022/11/07 01:08:19;;;;;;;;;;;10.60;99.90;;;;;;5003940;28;19925;-68
2022/11/07 01:10:45;;;;;;;;;;;10.60;99.90;;;;;;5046122;28;19974;-69
2022/11/07 01:13:10;;;;;;;;;;;10.60;99.90;;;;;;5021285;28;19961;-69
2022/11/07 01:15:38;;;;;;;;;;;10.60;99.90;;;;;;5020301;28;20688;-69
2022/11/07 01:18:04;;;;;;;;;;;10.60;99.90;;;;;;5021308;28;20294;-70
2022/11/07 01:20:29;;;;;;;;;;;10.70;99.90;;;;;;5016798;28;19925;-68
2022/11/07 01:22:55;;;;;;;;;;;10.70;99.90;;;;;;5024357;28;19932;-68
2022/11/07 01:25:20;;;;;;;;;;;10.80;99.90;;;;;;5004276;28;20371;-68
2022/11/07 01:27:46;;;;;;;;;;;10.80;99.90;;;;;;4996694;28;19921;-67
2022/11/07 01:30:11;;;;;;;;;;;10.80;99.90;;;;;;5008839;28;19974;-68
2022/11/07 01:32:37;;;;;;;;;;;10.80;99.90;;;;;;5019318;28;20558;-69
2022/11/07 01:35:02;;;;;;;;;;;10.90;99.90;;;;;;5021565;28;19932;-68
2022/11/07 01:37:28;;;;;;;;;;;10.90;99.90;;;;;;5035862;28;19921;-68
2022/11/07 01:39:53;;;;;;;;;;;10.80;99.90;;;;;;5013387;28;19980;-69
2022/11/07 01:42:19;;;;;;;;;;;10.80;99.90;;;;;;5021772;28;19925;-68
2022/11/07 01:44:48;;;;;;;;;;;10.80;99.90;;;;;;5018588;28;20016;-68
2022/11/07 01:47:14;;;;;;;;;;;10.80;99.90;;;;;;5016914;28;20003;-68
2022/11/07 01:49:40;;;;;;;;;;;10.90;99.90;;;;;;5038353;28;20350;-68
2022/11/07 01:52:08;;;;;;;;;;;10.90;99.90;;;;;;5022179;28;20012;-68
2022/11/07 01:54:39;;;;;;;;;;;10.90;99.90;;;;;;5017321;28;19921;-68
2022/11/07 01:57:08;;;;;;;;;;;10.90;99.90;;;;;;5005849;28;20624;-68
2022/11/07 01:59:33;;;;;;;;;;;10.90;99.90;;;;;;5029899;28;19932;-68
2022/11/07 02:01:59;;;;;;;;;;;10.80;99.90;;;;;;5031229;28;20278;-67
2022/11/07 02:04:26;;;;;;;;;;;10.90;99.90;;;;;;5021417;28;19921;-67
2022/11/07 02:06:58;;;;;;;;;;;10.90;99.90;;;;;;5033523;28;20397;-68
2022/11/07 02:09:24;;;;;;;;;;;10.90;99.90;;;;;;5030135;28;19929;-68
2022/11/07 02:11:50;;;;;;;;;;;10.90;99.90;;;;;;5043654;28;19921;-67
2022/11/07 02:14:17;;;;;;;;;;;10.80;99.90;;;;;;5027604;28;19921;-67
2022/11/07 02:16:43;;;;;;;;;;;10.80;99.90;;;;;;5025891;28;20532;-68
2022/11/07 02:19:16;;;;;;;;;;;10.80;99.90;;;;;;5033107;28;19921;-68
2022/11/07 02:22:04;;;;;;;;;;;10.80;99.90;;;;;;5046395;28;20527;-68
2022/11/07 02:24:33;;;;;;;;;;;10.80;99.90;;;;;;5031047;28;19921;-68
2022/11/07 02:27:01;;;;;;;;;;;10.70;99.90;;;;;;5017822;28;20380;-68
2022/11/07 02:29:27;;;;;;;;;;;10.70;99.90;;;;;;5025749;28;19929;-68
2022/11/07 02:31:59;;;;;;;;;;;10.70;99.90;;;;;;5022758;28;19929;-68
2022/11/07 02:34:25;;;;;;;;;;;10.80;99.90;;;;;;5014128;28;19962;-68
2022/11/07 02:36:50;;;;;;;;;;;10.90;99.90;;;;;;5024830;28;20558;-68
2022/11/07 02:39:16;;;;;;;;;;;10.90;99.90;;;;;;5012105;28;19924;-68
2022/11/07 02:41:41;;;;;;;;;;;10.90;99.90;;;;;;5024514;28;19931;-68
2022/11/07 02:44:08;;;;;;;;;;;10.90;99.90;;;;;;5036135;28;19925;-68
2022/11/07 02:46:34;;;;;;;;;;;10.90;99.90;;;;;;5011018;28;19971;-68
2022/11/07 02:49:00;;;;;;;;;;;10.90;99.90;;;;;;5010621;28;20351;-68
2022/11/07 02:51:25;;;;;;;;;;;10.90;99.90;;;;;;5022793;28;19982;-68
2022/11/07 02:53:51;;;;;;;;;;;11.00;99.90;;;;;;5019872;28;19921;-68
2022/11/07 02:56:17;;;;;;;;;;;11.00;99.90;;;;;;5037170;28;19943;-68
2022/11/07 02:58:43;;;;;;;;;;;11.00;99.90;;;;;;5014669;28;19999;-68
2022/11/07 03:01:08;;;;;;;;;;;11.00;99.90;;;;;;5028088;28;19921;-68
2022/11/07 03:03:34;;;;;;;;;;;11.00;99.90;;;;;;5026197;28;20359;-68
2022/11/07 03:06:00;;;;;;;;;;;11.00;99.90;;;;;;5014880;28;20008;-68
2022/11/07 03:08:26;;;;;;;;;;;11.00;99.90;;;;;;5018523;28;20062;-68
2022/11/07 03:10:51;;;;;;;;;;;11.00;99.90;;;;;;5011092;28;19936;-68
2022/11/07 03:13:17;;;;;;;;;;;11.00;99.90;;;;;;5013098;28;19928;-68
2022/11/07 03:15:42;;;;;;;;;;;11.00;99.90;;;;;;5014795;28;19929;-68
2022/11/07 03:18:08;;;;;;;;;;;10.90;99.90;;;;;;5024224;28;19932;-68
2022/11/07 03:20:33;;;;;;;;;;;10.90;99.90;;;;;;5028767;28;20374;-68
2022/11/07 03:22:58;;;;;;;;;;;10.90;99.90;;;;;;5036596;23;19929;-69
2022/11/07 03:25:24;;;;;;;;;;;10.80;99.90;;;;;;5043180;28;19936;-69
2022/11/07 03:27:49;;;;;;;;;;;10.70;99.90;;;;;;5048929;28;19921;-68
2022/11/07 03:30:15;;;;;;;;;;;10.70;99.90;;;;;;5049891;28;20318;-69
2022/11/07 03:32:40;;;;;;;;;;;10.70;99.90;;;;;;5041158;28;19925;-69
2022/11/07 03:35:06;;;;;;;;;;;10.60;99.90;;;;;;5032850;28;19921;-69
2022/11/07 03:37:32;;;;;;;;;;;10.60;99.90;;;;;;5031051;28;20016;-69
2022/11/07 03:39:57;;;;;;;;;;;10.60;99.90;;;;;;5039911;28;19975;-69
2022/11/07 03:42:23;;;;;;;;;;;10.60;99.90;;;;;;5043176;28;19931;-69
2022/11/07 03:44:48;;;;;;;;;;;10.60;99.90;;;;;;5044577;28;19971;-69
2022/11/07 03:47:13;;;;;;;;;;;10.50;99.90;;;;;;5032269;28;19933;-69
2022/11/07 03:49:39;;;;;;;;;;;10.60;99.90;;;;;;5031363;28;19956;-69
2022/11/07 03:52:04;;;;;;;;;;;10.50;99.90;;;;;;5056192;28;20318;-69
2022/11/07 03:54:30;;;;;;;;;;;10.50;99.90;;;;;;5044027;28;19928;-68
2022/11/07 03:56:55;;;;;;;;;;;10.50;99.90;;;;;;5039949;28;19921;-69
2022/11/07 03:59:21;;;;;;;;;;;10.40;99.90;;;;;;5032607;28;19924;-68
2022/11/07 04:01:46;;;;;;;;;;;10.40;99.90;;;;;;5042400;28;19978;-69
2022/11/07 04:04:12;;;;;;;;;;;10.40;99.90;;;;;;5039770;28;20378;-68
2022/11/07 04:06:37;;;;;;;;;;;10.40;99.90;;;;;;5041648;28;20336;-68
2022/11/07 04:09:03;;;;;;;;;;;10.50;99.90;;;;;;5033092;28;19932;-68
2022/11/07 04:19:41;;;;;;;;;;;10.60;99.90;;;;;;5037651;28;19932;-68
2022/11/07 04:22:06;;;;;;;;;;;10.50;99.90;;;;;;5048776;28;19925;-68
2022/11/07 04:24:32;;;;;;;;;;;10.50;99.90;;;;;;5044043;28;19921;-69
2022/11/07 04:29:41;;;;;;;;;;;10.50;99.90;;;;;;5038186;28;19921;-69
2022/11/07 04:32:06;;;;;;;;;;;10.50;99.90;;;;;;5045105;28;19924;-69
2022/11/07 04:34:32;;;;;;;;;;;10.50;99.90;;;;;;5022677;28;20347;-68
2022/11/07 04:36:57;;;;;;;;;;;10.40;99.90;;;;;;5041611;28;19925;-68
2022/11/07 04:39:23;;;;;;;;;;;10.40;99.90;;;;;;5038603;28;20336;-68
2022/11/07 04:41:48;;;;;;;;;;;10.40;99.90;;;;;;5039916;28;19921;-70
2022/11/07 04:44:14;;;;;;;;;;;10.40;99.90;;;;;;5059263;28;19925;-69
2022/11/07 04:46:39;;;;;;;;;;;10.40;99.90;;;;;;5045301;28;19986;-69
2022/11/07 04:49:05;;;;;;;;;;;10.30;99.90;;;;;;5050531;28;19921;-69
2022/11/07 04:51:30;;;;;;;;;;;10.30;99.90;;;;;;5039662;28;20343;-68
2022/11/07 04:53:56;;;;;;;;;;;10.30;99.90;;;;;;5034125;28;19925;-69
2022/11/07 04:56:21;;;;;;;;;;;10.40;99.90;;;;;;5045684;28;20020;-69
2022/11/07 04:58:46;;;;;;;;;;;10.40;99.90;;;;;;5041306;28;21269;-69
2022/11/07 05:01:12;;;;;;;;;;;10.50;99.90;;;;;;5035550;28;19925;-68
2022/11/07 05:03:37;;;;;;;;;;;10.50;99.90;;;;;;5035354;28;19929;-69
2022/11/07 05:06:03;;;;;;;;;;;10.50;99.90;;;;;;5040682;28;19925;-69
2022/11/07 05:08:32;;;;;;;;;;;10.50;99.90;;;;;;5035383;28;19931;-69
2022/11/07 05:10:57;;;;;;;;;;;10.50;99.90;;;;;;5031685;28;19921;-69
2022/11/07 05:13:23;;;;;;;;;;;10.60;99.90;;;;;;5041821;28;19921;-69
2022/11/07 05:15:49;;;;;;;;;;;10.60;99.90;;;;;;5032972;28;19924;-68
2022/11/07 05:18:14;;;;;;;;;;;10.60;99.90;;;;;;5041997;28;19929;-68
2022/11/07 05:20:40;;;;;;;;;;;10.60;99.90;;;;;;5036158;28;19924;-68
2022/11/07 05:23:11;;;;;;;;;;;10.70;99.90;;;;;;5036648;28;20019;-69
2022/11/07 05:25:37;;;;;;;;;;;10.70;99.90;;;;;;5038862;28;19925;-69
2022/11/07 05:28:03;;;;;;;;;;;10.70;99.90;;;;;;5033506;28;19921;-69
2022/11/07 05:30:29;;;;;;;;;;;10.70;99.90;;;;;;5050662;28;20012;-69
2022/11/07 05:32:54;;;;;;;;;;;10.70;99.90;;;;;;5042402;28;20363;-69
2022/11/07 05:35:20;;;;;;;;;;;10.70;99.90;;;;;;5034886;28;19921;-69
2022/11/07 05:37:47;;;;;;;;;;;10.70;99.90;;;;;;5033601;28;19956;-69
2022/11/07 05:40:13;;;;;;;;;;;10.70;99.90;;;;;;5046148;28;19932;-69
2022/11/07 05:42:38;;;;;;;;;;;10.70;99.90;;;;;;5035918;28;20333;-70
2022/11/07 05:45:04;;;;;;;;;;;10.70;99.90;;;;;;5048005;28;20396;-69
2022/11/07 05:47:29;;;;;;;;;;;10.80;99.90;;;;;;5033237;28;19928;-69
2022/11/07 05:49:55;;;;;;;;;;;10.80;99.90;;;;;;5034209;28;19944;-70
2022/11/07 05:52:20;;;;;;;;;;;10.80;99.90;;;;;;5033382;28;19921;-67
2022/11/07 05:54:46;;;;;;;;;;;10.80;99.90;;;;;;5033284;28;19971;-69
2022/11/07 05:57:11;;;;;;;;;;;10.70;99.90;;;;;;5033305;28;19924;-67
2022/11/07 05:59:37;;;;;;;;;;;10.70;99.90;;;;;;5047952;28;20366;-68
2022/11/07 06:02:02;;;;;;;;;;;10.70;99.90;;;;;;5050359;28;19971;-68
2022/11/07 06:04:28;;;;;;;;;;;10.70;99.90;;;;;;5050024;28;19979;-68
2022/11/07 06:06:53;;;;;;;;;;;10.80;99.90;;;;;;5039790;28;19968;-69
2022/11/07 06:09:18;;;;;;;;;;;10.80;99.90;;;;;;5041294;28;19929;-69
2022/11/07 06:11:44;;;;;;;;;;;10.80;99.90;;;;;;5037735;28;19924;-68
2022/11/07 06:14:09;;;;;;;;;;;10.80;99.90;;;;;;5033544;28;19936;-68
2022/11/07 06:16:35;;;;;;;;;;;10.80;99.90;;;;;;5045239;28;20576;-68
2022/11/07 06:19:01;;;;;;;;;;;10.80;99.90;;;;;;5040889;28;19928;-68
2022/11/07 06:21:26;;;;;;;;;;;10.70;99.90;;;;;;5042661;28;19931;-68
2022/11/07 06:23:52;;;;;;;;;;;10.70;99.90;;;;;;5035273;28;19937;-68
2022/11/07 06:26:17;;;;;;;;;;;10.60;99.90;;;;;;5049216;28;19969;-68
2022/11/07 06:28:43;;;;;;;;;;;10.60;99.90;;;;;;5049282;28;19921;-68
2022/11/07 06:31:08;;;;;;;;;;;10.50;99.90;;;;;;5032875;28;20381;-69
2022/11/07 06:33:34;;;;;;;;;;;10.60;99.90;;;;;;5038648;28;19930;-68
2022/11/07 06:36:07;;;;;;;;;;;10.60;99.90;;;;;;5046447;28;19971;-68
2022/11/07 06:38:33;;;;;;;;;;;10.60;99.90;;;;;;5036276;28;19928;-69
2022/11/07 06:41:09;;;;;;;;;;;10.60;99.90;;;;;;5052652;28;20289;-68
2022/11/07 06:43:34;;;;;;;;;;;10.60;99.90;;;;;;5053257;28;19928;-68
2022/11/07 06:46:01;;;;;;;;;;;10.60;99.90;;;;;;5049443;28;19931;-68
2022/11/07 06:48:26;;;;;;;;;;;10.60;99.90;;;;;;5047552;28;19921;-69
2022/11/07 06:50:58;;;;;;;;;;;10.70;99.90;;;;;;5051025;28;20454;-68
2022/11/07 06:53:24;;;;;;;;;;;10.70;99.90;;;;;;5050083;28;19939;-69
2022/11/07 06:55:50;;;;;;;;;;;10.70;99.90;;;;;;5055667;28;20000;-68
2022/11/07 06:58:15;;;;;;;;;;;10.70;99.90;;;;;;5046943;28;20546;-69
2022/11/07 07:00:41;;;;;;;;;;;10.70;99.90;;;;;;5048568;28;19921;-69
2022/11/07 07:03:06;;;;;;;;;;;10.70;99.90;;;;;;5030534;28;19928;-68
2022/11/07 07:05:32;;;;;;;;;;;10.70;99.90;;;;;;5049571;28;20066;-68
2022/11/07 07:07:58;;;;;;;;;;;10.70;99.90;;;;;;5031152;28;19931;-68
2022/11/07 07:10:24;;;;;;;;;;;10.70;99.90;;;;;;5044929;28;20007;-69
2022/11/07 07:12:49;;;;;;;;;;;10.70;99.90;;;;;;5048302;28;19920;-69
2022/11/07 07:15:15;;;;;;;;;;;10.60;99.90;;;;;;5065965;28;19921;-68
2022/11/07 07:17:40;;;;;;;;;;;10.60;99.90;;;;;;5050560;28;19924;-70
2022/11/07 07:20:06;;;;;;;;;;;10.60;99.90;;;;;;5050994;28;19932;-69
2022/11/07 07:22:31;;;;;;;;;;;10.60;99.90;;;;;;5043923;28;19958;-69
2022/11/07 07:24:57;;;;;;;;;;;10.60;99.90;;;;;;5047076;28;19928;-68
2022/11/07 07:27:22;;;;;;;;;;;10.60;99.90;;;;;;5046377;28;19932;-69
2022/11/07 07:29:48;;;;;;;;;;;10.60;99.90;;;;;;5049673;28;19960;-68
2022/11/07 07:32:14;;;;;;;;;;;10.60;99.90;;;;;;5048050;28;19928;-68
2022/11/07 07:34:39;;;;;;;;;;;10.60;99.90;;;;;;5044507;28;19981;-69
2022/11/07 07:37:05;;;;;;;;;;;10.60;99.90;;;;;;5047537;28;19931;-68
2022/11/07 07:39:30;;;;;;;;;;;10.60;99.90;;;;;;5049127;28;20361;-69
2022/11/07 07:41:56;;;;;;;;;;;10.70;99.90;;;;;;5043665;28;19931;-69
2022/11/07 07:44:21;;;;;;;;;;;10.70;99.90;;;;;;5047832;28;20275;-69
2022/11/07 07:46:47;;;;;;;;;;;10.70;99.90;;;;;;5052286;28;19947;-69
2022/11/07 07:49:12;;;;;;;;;;;10.80;99.90;;;;;;5029191;28;20270;-69
2022/11/07 07:51:38;;;;;;;;;;;10.80;99.90;;;;;;5051766;28;19921;-69
2022/11/07 07:54:03;;;;;;;;;;;10.80;99.90;;;;;;5049384;28;20310;-69
2022/11/07 07:56:29;;;;;;;;;;;10.80;99.90;;;;;;5047217;28;19921;-69
2022/11/07 07:58:54;;;;;;;;;;;10.80;99.90;;;;;;5050963;28;20024;-69
2022/11/07 08:01:20;;;;;;;;;;;10.80;99.90;;;;;;5030809;28;19925;-68
2022/11/07 08:03:45;;;;;;;;;;;10.80;99.90;;;;;;5032723;28;19986;-68
2022/11/07 08:06:11;;;;;;;;;;;10.80;99.90;;;;;;5034779;28;19926;-69
2022/11/07 08:08:36;;;;;;;;;;;10.80;99.90;;;;;;5041395;28;19928;-68
2022/11/07 08:11:03;;;;;;;;;;;10.80;99.90;;;;;;5038401;28;19921;-69
2022/11/07 08:13:29;;;;;;;;;;;10.80;99.90;;;;;;5029481;28;19937;-69
2022/11/07 08:15:54;;;;;;;;;;;10.80;99.90;;;;;;5039414;28;19928;-68
2022/11/07 08:18:20;;;;;;;;;;;10.80;99.90;;;;;;5029268;28;19921;-69
2022/11/07 08:20:48;;;;;;;;;;;10.90;99.90;;;;;;5038690;28;19925;-69
2022/11/07 08:23:14;;;;;;;;;;;10.90;99.90;;;;;;5029702;28;20015;-69
2022/11/07 08:25:40;;;;;;;;;;;10.90;99.90;;;;;;5039601;28;20036;-69
2022/11/07 08:28:07;;;;;;;;;;;10.90;99.90;;;;;;5034623;28;19968;-69
2022/11/07 08:30:32;;;;;;;;;;;10.90;99.90;;;;;;5039917;28;19921;-68
2022/11/07 08:32:59;;;;;;;;;;;10.90;99.90;;;;;;5042186;28;19928;-69
2022/11/07 08:35:24;;;;;;;;;;;11.00;99.90;;;;;;5036794;28;19971;-68
2022/11/07 08:37:53;;;;;;;;;;;11.00;99.90;;;;;;5034956;28;20327;-70
2022/11/07 08:40:18;;;;;;;;;;;11.10;99.90;;;;;;5033808;28;19933;-68
2022/11/07 08:42:44;;;;;;;;;;;11.10;99.90;;;;;;5025635;28;19932;-68
2022/11/07 08:45:09;;;;;;;;;;;11.10;99.90;;;;;;5039373;28;19967;-68
2022/11/07 08:47:35;;;;;;;;;;;11.20;99.90;;;;;;5034165;28;19928;-68
2022/11/07 08:50:00;;;;;;;;;;;11.30;99.90;;;;;;5041923;28;19931;-69
2022/11/07 08:52:26;;;;;;;;;;;11.30;99.90;;;;;;5043595;28;20429;-68
2022/11/07 08:54:51;;;;;;;;;;;11.40;99.90;;;;;;5044117;28;19986;-69
2022/11/07 08:57:17;;;;;;;;;;;11.40;99.90;;;;;;5041779;28;20341;-69
2022/11/07 08:59:42;;;;;;;;;;;11.50;99.90;;;;;;5028318;28;19921;-68
2022/11/07 09:02:11;;;;;;;;;;;11.50;99.90;;;;;;5031347;28;20003;-68
2022/11/07 09:04:37;;;;;;;;;;;11.50;99.90;;;;;;5050937;28;19947;-68
2022/11/07 09:07:02;;;;;;;;;;;11.60;99.90;;;;;;5047679;28;19924;-68
2022/11/07 09:09:28;;;;;;;;;;;11.60;99.90;;;;;;5051610;28;20529;-69
2022/11/07 09:11:53;;;;;;;;;;;11.70;99.90;;;;;;5037201;28;19940;-68
2022/11/07 09:14:19;;;;;;;;;;;11.70;99.90;;;;;;5043302;28;19971;-69
2022/11/07 09:16:44;;;;;;;;;;;11.80;99.90;;;;;;5020239;28;19922;-68
2022/11/07 09:19:10;;;;;;;;;;;11.80;99.90;;;;;;5050787;28;19925;-68
2022/11/07 09:21:35;;;;;;;;;;;11.80;99.90;;;;;;5052419;28;19921;-69
2022/11/07 09:24:01;;;;;;;;;;;11.80;99.90;;;;;;5038515;28;19921;-69
2022/11/07 09:26:26;;;;;;;;;;;11.80;99.90;;;;;;5041569;28;19924;-68
2022/11/07 09:28:52;;;;;;;;;;;11.80;99.90;;;;;;5048549;28;19921;-69
2022/11/07 09:31:18;;;;;;;;;;;11.90;99.90;;;;;;5049447;28;19985;-69
2022/11/07 09:33:43;;;;;;;;;;;11.90;99.90;;;;;;5048324;28;20380;-68
2022/11/07 09:36:10;;;;;;;;;;;11.90;99.90;;;;;;5033710;28;19920;-68
2022/11/07 09:38:36;;;;;;;;;;;11.90;99.90;;;;;;5051415;28;19959;-68
2022/11/07 09:41:20;;;;;;;;;;;11.90;99.90;;;;;;5050684;28;19970;-69
2022/11/07 09:44:04;;;;;;;;;;;12.00;99.90;;;;;;5052318;28;20007;-68
2022/11/07 09:46:31;;;;;;;;;;;12.00;99.90;;;;;;5045831;28;19983;-69
2022/11/07 09:49:00;;;;;;;;;;;12.00;99.90;;;;;;5054376;28;19943;-68
2022/11/07 09:51:27;;;;;;;;;;;12.10;99.90;;;;;;5047185;28;20419;-69
2022/11/07 09:53:57;;;;;;;;;;;12.00;99.90;;;;;;5070702;28;19924;-69
2022/11/07 09:56:23;;;;;;;;;;;12.20;99.90;;;;;;5045471;28;19920;-69
2022/11/07 09:58:53;;;;;;;;;;;12.10;99.90;;;;;;5044338;28;19931;-69
2022/11/07 10:01:19;;;;;;;;;;;12.10;99.90;;;;;;5056993;28;19936;-69
2022/11/07 10:03:45;;;;;;;;;;;12.00;99.90;;;;;;5046797;28;19927;-69
2022/11/07 10:06:25;;;;;;;;;;;12.10;99.90;;;;;;5045935;28;19932;-68
2022/11/07 10:08:54;;;;;;;;;;;12.10;99.90;;;;;;5049685;28;19971;-69
2022/11/07 10:11:46;;;;;;;;;;;12.20;99.90;;;;;;5064477;28;20300;-69
2022/11/07 10:14:11;;;;;;;;;;;12.30;99.90;;;;;;5027841;28;19929;-69
2022/11/07 10:16:55;;;;;;;;;;;12.30;99.90;;;;;;5055327;28;19931;-69
2022/11/07 10:19:21;;;;;;;;;;;12.30;99.90;;;;;;5055621;28;19920;-69
2022/11/07 10:21:56;;;;;;;;;;;12.30;99.90;;;;;;5055741;28;20014;-69
2022/11/07 10:24:42;;;;;;;;;;;12.40;99.90;;;;;;5050156;28;20020;-69
2022/11/07 10:27:12;;;;;;;;;;;12.40;99.90;;;;;;5050373;28;19932;-69
2022/11/07 10:29:51;;;;;;;;;;;12.40;99.90;;;;;;5050877;28;20275;-69
2022/11/07 10:32:25;;;;;;;;;;;12.40;99.90;;;;;;5038655;28;19952;-68
2022/11/07 10:34:54;;;;;;;;;;;12.50;99.90;;;;;;5044326;28;19985;-69
2022/11/07 10:37:20;;;;;;;;;;;12.60;99.90;;;;;;5036356;28;19932;-68
2022/11/07 10:39:45;;;;;;;;;;;12.70;99.90;;;;;;5065942;28;19924;-70
2022/11/07 10:42:18;;;;;;;;;;;12.80;99.90;;;;;;5066431;28;19932;-69
2022/11/07 10:44:44;;;;;;;;;;;12.80;99.90;;;;;;5038054;28;20032;-68
2022/11/07 10:47:14;;;;;;;;;;;12.90;99.90;;;;;;5043080;28;20290;-68
2022/11/07 10:49:40;;;;;;;;;;;12.90;99.90;;;;;;5034375;28;19920;-69
2022/11/07 10:52:15;;;;;;;;;;;13.00;99.90;;;;;;5067711;28;19924;-69
2022/11/07 10:54:40;;;;;;;;;;;13.00;99.90;;;;;;5050378;28;20388;-70
2022/11/07 10:57:10;;;;;;;;;;;13.00;99.90;;;;;;5051008;28;19921;-69
2022/11/07 10:59:37;;;;;;;;;;;13.10;99.90;;;;;;5044311;28;19927;-70
2022/11/07 11:02:19;;;;;;;;;;;13.10;99.90;;;;;;5040614;28;19920;-69
2022/11/07 11:04:53;;;;;;;;;;;13.20;99.90;;;;;;5045445;28;19924;-69
2022/11/07 11:07:19;;;;;;;;;;;13.20;99.90;;;;;;5048830;28;19936;-68
2022/11/07 11:09:49;;;;;;;;;;;13.20;99.90;;;;;;5050727;28;19934;-69
2022/11/07 11:12:15;;;;;;;;;;;13.30;99.90;;;;;;5058531;28;20382;-68
2022/11/07 11:14:41;;;;;;;;;;;13.40;99.90;;;;;;5044565;28;19950;-69
2022/11/07 11:17:21;;;;;;;;;;;13.40;99.90;;;;;;5060369;28;19921;-69
2022/11/07 11:19:51;;;;;;;;;;;13.50;99.90;;;;;;5037648;28;19924;-69
2022/11/07 11:22:17;;;;;;;;;;;13.50;99.90;;;;;;5040243;28;19937;-69
2022/11/07 11:24:43;;;;;;;;;;;13.50;99.90;;;;;;5040803;28;20381;-69
2022/11/07 11:27:14;;;;;;;;;;;13.60;99.90;;;;;;5041290;28;19974;-69
2022/11/07 11:29:59;;;;;;;;;;;13.60;99.90;;;;;;5052038;28;19921;-69
2022/11/07 11:32:31;;;;;;;;;;;13.60;99.90;;;;;;5047755;28;19982;-68
2022/11/07 11:35:01;;;;;;;;;;;13.70;99.90;;;;;;5068450;28;20052;-68
2022/11/07 11:37:26;;;;;;;;;;;13.70;99.90;;;;;;5046881;28;19921;-68
2022/11/07 11:39:58;;;;;;;;;;;13.60;99.90;;;;;;5050080;28;19925;-68
2022/11/07 11:42:31;;;;;;;;;;;13.60;99.90;;;;;;5029094;28;19928;-68
2022/11/07 11:44:58;;;;;;;;;;;13.60;99.90;;;;;;5046142;28;20015;-69
2022/11/07 11:47:24;;;;;;;;;;;13.60;99.90;;;;;;5044600;28;20386;-68
2022/11/07 11:49:52;;;;;;;;;;;13.60;99.90;;;;;;5053703;28;19921;-68
2022/11/07 11:52:24;;;;;;;;;;;13.60;99.90;;;;;;5065025;28;19980;-69
2022/11/07 11:54:51;;;;;;;;;;;13.70;99.90;;;;;;5029732;28;20007;-68
2022/11/07 11:57:19;;;;;;;;;;;13.70;99.90;;;;;;5045925;28;20282;-68
2022/11/07 12:00:03;;;;;;;;;;;13.80;99.90;;;;;;5045374;28;19968;-68
2022/11/07 12:02:39;;;;;;;;;;;13.90;99.90;;;;;;5049067;28;20387;-69
2022/11/07 12:05:18;;;;;;;;;;;14.00;99.90;;;;;;5063778;28;20458;-68
2022/11/07 12:07:49;;;;;;;;;;;14.00;99.90;;;;;;5059177;28;20370;-68
2022/11/07 12:10:17;;;;;;;;;;;14.00;99.90;;;;;;5069104;28;20486;-68
2022/11/07 12:13:02;;;;;;;;;;;13.90;99.90;;;;;;5044055;28;19987;-68
2022/11/07 12:15:40;;;;;;;;;;;14.10;99.90;;;;;;5067626;28;19947;-68
2022/11/07 12:18:14;;;;;;;;;;;14.10;99.90;;;;;;5046837;28;19921;-68
2022/11/07 12:20:48;;;;;;;;;;;14.20;99.90;;;;;;5060375;28;19927;-69
2022/11/07 12:23:32;;;;;;;;;;;14.30;99.90;;;;;;5031267;28;20379;-68
2022/11/07 12:26:18;;;;;;;;;;;14.40;99.90;;;;;;5041483;28;19978;-68
2022/11/07 12:28:59;;;;;;;;;;;14.30;99.90;;;;;;5061703;28;19924;-69
2022/11/07 12:31:27;;;;;;;;;;;14.30;99.90;;;;;;5056750;28;19932;-69
2022/11/07 12:34:08;;;;;;;;;;;14.30;99.90;;;;;;5044651;28;19924;-69
2022/11/07 12:36:52;;;;;;;;;;;14.30;99.90;;;;;;5038147;28;20045;-68
2022/11/07 12:39:27;;;;;;;;;;;14.30;99.90;;;;;;5064472;28;19932;-69
2022/11/07 12:42:05;;;;;;;;;;;14.30;99.90;;;;;;5050725;28;19932;-69
2022/11/07 12:44:49;;;;;;;;;;;14.40;99.90;;;;;;5042470;28;19951;-68
2022/11/07 12:47:33;;;;;;;;;;;14.40;99.90;;;;;;5064860;28;20011;-70
2022/11/07 12:50:03;;;;;;;;;;;14.40;99.90;;;;;;5068843;28;19974;-68
2022/11/07 12:52:49;;;;;;;;;;;14.40;99.90;;;;;;5047895;28;20362;-69
2022/11/07 12:55:17;;;;;;;;;;;14.40;99.90;;;;;;5051082;28;19928;-69
2022/11/07 12:57:42;;;;;;;;;;;14.50;99.90;;;;;;5044612;28;19931;-69
2022/11/07 13:00:18;;;;;;;;;;;14.50;99.90;;;;;;5042522;28;19920;-69
2022/11/07 13:02:53;;;;;;;;;;;14.40;99.90;;;;;;5042238;28;19928;-69
2022/11/07 13:05:37;;;;;;;;;;;14.40;99.90;;;;;;5047396;28;19929;-69
2022/11/07 13:08:08;;;;;;;;;;;14.50;99.90;;;;;;5057205;28;19921;-69
2022/11/07 13:10:42;;;;;;;;;;;14.50;99.90;;;;;;5036133;28;20390;-68
2022/11/07 13:13:14;;;;;;;;;;;14.50;99.90;;;;;;5043429;28;19931;-68
2022/11/07 13:15:39;;;;;;;;;;;14.40;99.90;;;;;;5039808;28;20015;-69
2022/11/07 13:18:20;;;;;;;;;;;14.40;99.90;;;;;;5047219;28;20058;-69
2022/11/07 13:20:45;;;;;;;;;;;14.30;99.90;;;;;;5042560;28;20354;-69
2022/11/07 13:23:15;;;;;;;;;;;14.20;99.90;;;;;;5063502;28;19971;-69
2022/11/07 13:25:41;;;;;;;;;;;14.10;99.90;;;;;;5039917;28;19974;-69
2022/11/07 13:28:23;;;;;;;;;;;14.10;99.90;;;;;;5033959;28;20015;-69
2022/11/07 13:30:53;;;;;;;;;;;14.10;99.90;;;;;;5054926;28;19925;-69
2022/11/07 13:33:29;;;;;;;;;;;14.20;99.90;;;;;;5035103;28;20569;-69
2022/11/07 13:35:56;;;;;;;;;;;14.10;99.90;;;;;;5039971;28;19967;-69
2022/11/07 13:38:22;;;;;;;;;;;14.00;99.90;;;;;;5045331;28;19920;-69
2022/11/07 13:41:05;;;;;;;;;;;14.00;99.90;;;;;;5047870;28;19975;-70
2022/11/07 13:43:44;;;;;;;;;;;14.00;99.90;;;;;;5059916;28;19924;-69
2022/11/07 13:46:30;;;;;;;;;;;14.00;99.90;;;;;;5048851;28;20404;-69
2022/11/07 13:49:16;;;;;;;;;;;14.00;99.90;;;;;;5025313;28;19920;-69
2022/11/07 13:51:49;;;;;;;;;;;14.10;99.90;;;;;;5032040;28;20573;-69
2022/11/07 13:54:34;;;;;;;;;;;14.10;99.90;;;;;;5044616;28;19970;-68
2022/11/07 13:57:03;;;;;;;;;;;14.00;99.90;;;;;;5061376;28;20027;-69
2022/11/07 13:59:31;;;;;;;;;;;14.00;99.90;;;;;;5049035;28;19928;-69
2022/11/07 14:01:57;;;;;;;;;;;14.00;99.90;;;;;;5045522;28;20067;-69
2022/11/07 14:04:25;;;;;;;;;;;14.00;99.90;;;;;;5046699;28;20023;-69
2022/11/07 14:06:54;;;;;;;;;;;14.00;99.90;;;;;;5043276;28;20306;-69
2022/11/07 14:09:20;;;;;;;;;;;14.00;99.90;;;;;;5039707;28;20050;-70
2022/11/07 14:11:46;;;;;;;;;;;13.90;99.90;;;;;;5056639;28;20011;-69
2022/11/07 14:14:11;;;;;;;;;;;13.90;99.90;;;;;;5022574;28;19920;-69
2022/11/07 14:16:37;;;;;;;;;;;13.90;99.90;;;;;;5039433;28;19924;-68
2022/11/07 14:19:05;;;;;;;;;;;13.80;99.90;;;;;;5023023;28;19985;-69
2022/11/07 14:21:32;;;;;;;;;;;13.80;99.90;;;;;;5039745;28;20169;-69
2022/11/07 14:23:57;;;;;;;;;;;13.80;99.90;;;;;;5043322;28;19967;-69
2022/11/07 14:26:24;;;;;;;;;;;13.70;99.90;;;;;;5065586;28;19983;-69
2022/11/07 14:28:50;;;;;;;;;;;13.70;99.90;;;;;;5055414;28;19939;-69
2022/11/07 14:31:24;;;;;;;;;;;13.70;99.90;;;;;;5039308;28;19920;-69
2022/11/07 14:33:51;;;;;;;;;;;13.60;99.90;;;;;;5043245;28;20015;-69
2022/11/07 14:36:17;;;;;;;;;;;13.60;99.90;;;;;;5048004;28;19928;-68